^^
Meteo Knjazevac Station Historical Data
Daily Summary for April 26, 2021 Units:  Both    English   Metric
Daily Weekly Monthly Yearly Custom
  High: Low: Average:
Temperature: 52.7 °F /  11.5 °C 47.8 °F /  8.8 °C 50.6 °F /  10.3 °C
Dew Point: 44.5 °F /  6.9 °C 41.3 °F /  5.2 °C 42.7 °F /  5.9 °C
Humidity: 88% 65% 75%
Wind Speed: 9mph /  14.5km/h - 4.5mph /  7.2km/h
Wind Gust: 17mph /  27.4km/h - -
Wind- - SE
Pressure: 29.93 in /  1013.4 hPa 29.89 in /  1012.1 hPa -
Precipitation: 0.05 in /  1.27 mm    
Historical Graphs
 
 
Tabular Data for April 26, 2021
Time Temperature Dew Point Pressure Wind Wind Speed Wind Gust Humidity Rainfall Rate (Hourly) solar Conditions
00:00 52.7 °F /  11.5 °C 41.3 °F /  5.2 °C 29.93in /  1013.4hPa SSE 3mph /  4.8km/h 9mph /  14.5km/h 65% 0.00in /  0mm 0 W/m2
00:10 52.5 °F /  11.4 °C 41.9 °F /  5.5 °C 29.93in /  1013.4hPa South 1mph /  1.6km/h 7mph /  11.3km/h 67% 0.00in /  0mm 0 W/m2
00:20 52.5 °F /  11.4 °C 41.4 °F /  5.2 °C 29.93in /  1013.4hPa SSE 5mph /  8km/h 12mph /  19.3km/h 66% 0.00in /  0mm 0 W/m2
00:30 52.3 °F /  11.3 °C 41.7 °F /  5.4 °C 29.92in /  1013.1hPa SE 6mph /  9.7km/h 10mph /  16.1km/h 67% 0.00in /  0mm 0 W/m2
00:40 52.3 °F /  11.3 °C 41.3 °F /  5.2 °C 29.92in /  1013.1hPa SE 6mph /  9.7km/h 12mph /  19.3km/h 66% 0.00in /  0mm 0 W/m2
00:50 52.2 °F /  11.2 °C 41.5 °F /  5.3 °C 29.92in /  1013.1hPa SE 6mph /  9.7km/h 10mph /  16.1km/h 67% 0.00in /  0mm 0 W/m2
01:00 52.2 °F /  11.2 °C 41.5 °F /  5.3 °C 29.92in /  1013.1hPa SE 5mph /  8km/h 8mph /  12.9km/h 67% 0.00in /  0mm 0 W/m2
01:10 52.2 °F /  11.2 °C 41.5 °F /  5.3 °C 29.92in /  1013.1hPa SE 7mph /  11.3km/h 14mph /  22.5km/h 67% 0.00in /  0mm 0 W/m2
01:20 52 °F /  11.1 °C 41.4 °F /  5.2 °C 29.92in /  1013.1hPa SE 3mph /  4.8km/h 11mph /  17.7km/h 67% 0.00in /  0mm 0 W/m2
01:30 52 °F /  11.1 °C 41.4 °F /  5.2 °C 29.92in /  1013.1hPa SE 3mph /  4.8km/h 8mph /  12.9km/h 67% 0.00in /  0mm 0 W/m2
01:40 51.8 °F /  11 °C 41.6 °F /  5.3 °C 29.92in /  1013.1hPa SSE 2mph /  3.2km/h 5mph /  8km/h 68% 0.00in /  0mm 0 W/m2
01:50 51.8 °F /  11 °C 41.6 °F /  5.3 °C 29.92in /  1013.1hPa SSE 3mph /  4.8km/h 7mph /  11.3km/h 68% 0.00in /  0mm 0 W/m2
02:00 52 °F /  11.1 °C 41.4 °F /  5.2 °C 29.92in /  1013.1hPa SE 3mph /  4.8km/h 10mph /  16.1km/h 67% 0.00in /  0mm 0 W/m2
02:10 52.2 °F /  11.2 °C 41.5 °F /  5.3 °C 29.92in /  1013.1hPa SE 6mph /  9.7km/h 11mph /  17.7km/h 67% 0.00in /  0mm 0 W/m2
02:20 52.2 °F /  11.2 °C 41.5 °F /  5.3 °C 29.91in /  1012.8hPa SE 6mph /  9.7km/h 10mph /  16.1km/h 67% 0.00in /  0mm 0 W/m2
02:30 52 °F /  11.1 °C 41.4 °F /  5.2 °C 29.91in /  1012.8hPa SE 5mph /  8km/h 12mph /  19.3km/h 67% 0.00in /  0mm 0 W/m2
02:40 52 °F /  11.1 °C 41.4 °F /  5.2 °C 29.90in /  1012.4hPa SE 5mph /  8km/h 9mph /  14.5km/h 67% 0.00in /  0mm 0 W/m2
02:50 51.8 °F /  11 °C 41.6 °F /  5.3 °C 29.90in /  1012.4hPa ESE 6mph /  9.7km/h 13mph /  20.9km/h 68% 0.00in /  0mm 0 W/m2
03:00 51.6 °F /  10.9 °C 41.4 °F /  5.2 °C 29.90in /  1012.4hPa ESE 7mph /  11.3km/h 13mph /  20.9km/h 68% 0.00in /  0mm 0 W/m2
03:10 51.8 °F /  11 °C 41.6 °F /  5.3 °C 29.90in /  1012.4hPa ESE 7mph /  11.3km/h 10mph /  16.1km/h 68% 0.00in /  0mm 0 W/m2
03:20 52 °F /  11.1 °C 41.7 °F /  5.4 °C 29.90in /  1012.4hPa ESE 6mph /  9.7km/h 12mph /  19.3km/h 68% 0.00in /  0mm 0 W/m2
03:30 52 °F /  11.1 °C 41.4 °F /  5.2 °C 29.89in /  1012.1hPa SE 7mph /  11.3km/h 16mph /  25.7km/h 67% 0.00in /  0mm 0 W/m2
03:40 51.9 °F /  11.1 °C 41.6 °F /  5.3 °C 29.89in /  1012.1hPa SE 8mph /  12.9km/h 16mph /  25.7km/h 68% 0.00in /  0mm 0 W/m2
03:50 51.6 °F /  10.9 °C 41.8 °F /  5.4 °C 29.89in /  1012.1hPa ESE 6mph /  9.7km/h 13mph /  20.9km/h 69% 0.00in /  0mm 0 W/m2
04:00 51.6 °F /  10.9 °C 42.2 °F /  5.7 °C 29.90in /  1012.4hPa ESE 7mph /  11.3km/h 12mph /  19.3km/h 70% 0.00in /  0mm 0 W/m2
04:10 51.4 °F /  10.8 °C 42.7 °F /  5.9 °C 29.90in /  1012.4hPa ESE 7mph /  11.3km/h 12mph /  19.3km/h 72% 0.00in /  0mm 0 W/m2
04:20 51.3 °F /  10.7 °C 42.5 °F /  5.8 °C 29.90in /  1012.4hPa ESE 7mph /  11.3km/h 14mph /  22.5km/h 72% 0.00in /  0mm 0 W/m2
04:30 51.1 °F /  10.6 °C 42.7 °F /  5.9 °C 29.89in /  1012.1hPa ESE 8mph /  12.9km/h 14mph /  22.5km/h 73% 0.00in /  0mm 0 W/m2
04:40 50.9 °F /  10.5 °C 42.6 °F /  5.9 °C 29.89in /  1012.1hPa ESE 7mph /  11.3km/h 17mph /  27.4km/h 73% 0.00in /  0mm 0 W/m2
04:50 50.9 °F /  10.5 °C 42.6 °F /  5.9 °C 29.89in /  1012.1hPa ESE 9mph /  14.5km/h 15mph /  24.1km/h 73% 0.00in /  0mm 0 W/m2
05:00 50.9 °F /  10.5 °C 42.6 °F /  5.9 °C 29.89in /  1012.1hPa SE 6mph /  9.7km/h 13mph /  20.9km/h 73% 0.00in /  0mm 0 W/m2
05:10 50.6 °F /  10.3 °C 42.7 °F /  5.9 °C 29.89in /  1012.1hPa ESE 7mph /  11.3km/h 13mph /  20.9km/h 74% 0.00in /  0mm 0 W/m2
05:20 50.4 °F /  10.2 °C 43.1 °F /  6.2 °C 29.89in /  1012.1hPa ESE 8mph /  12.9km/h 12mph /  19.3km/h 76% 0.00in /  0mm 0 W/m2
05:30 50.2 °F /  10.1 °C 43.6 °F /  6.4 °C 29.90in /  1012.4hPa SE 7mph /  11.3km/h 14mph /  22.5km/h 78% 0.00in /  0mm 0 W/m2
05:40 50 °F /  10 °C 43.7 °F /  6.5 °C 29.90in /  1012.4hPa ESE 7mph /  11.3km/h 13mph /  20.9km/h 79% 0.00in /  0mm 0 W/m2
05:50 49.6 °F /  9.8 °C 43.4 °F /  6.3 °C 29.91in /  1012.8hPa ESE 5mph /  8km/h 12mph /  19.3km/h 79% 0.00in /  0mm 0 W/m2
06:00 49.6 °F /  9.8 °C 43.7 °F /  6.5 °C 29.90in /  1012.4hPa SSE 3mph /  4.8km/h 9mph /  14.5km/h 80% 0.00in /  0mm 0 W/m2
06:10 49.3 °F /  9.6 °C 43.7 °F /  6.5 °C 29.91in /  1012.8hPa SW 1mph /  1.6km/h 5mph /  8km/h 81% 0.00in /  0mm 0 W/m2
06:20 49.1 °F /  9.5 °C 43.5 °F /  6.4 °C 29.91in /  1012.8hPa SW 2mph /  3.2km/h 6mph /  9.7km/h 81% 0.00in /  0mm 0 W/m2
06:30 48.7 °F /  9.3 °C 43.8 °F /  6.6 °C 29.91in /  1012.8hPa Calm   6mph /  9.7km/h 83% 0.00in /  0mm 0 W/m2
06:40 48.7 °F /  9.3 °C 43.8 °F /  6.6 °C 29.91in /  1012.8hPa SSE 2mph /  3.2km/h 7mph /  11.3km/h 83% 0.01in /  0.25mm 0 W/m2
06:50 48.6 °F /  9.2 °C 43.9 °F /  6.6 °C 29.91in /  1012.8hPa Calm   5mph /  8km/h 84% 0.01in /  0.25mm 0 W/m2
07:00 48.4 °F /  9.1 °C 44.1 °F /  6.7 °C 29.92in /  1013.1hPa SE 3mph /  4.8km/h 10mph /  16.1km/h 85% 0.00in /  0mm 0 W/m2
07:10 48.2 °F /  9 °C 44.2 °F /  6.8 °C 29.92in /  1013.1hPa Calm   4mph /  6.4km/h 86% 0.00in /  0mm 0 W/m2
07:20 48 °F /  8.9 °C 44 °F /  6.7 °C 29.92in /  1013.1hPa NW 2mph /  3.2km/h 5mph /  8km/h 86% 0.00in /  0mm 1 W/m2
07:30 48 °F /  8.9 °C 44 °F /  6.7 °C 29.92in /  1013.1hPa SE 1mph /  1.6km/h 6mph /  9.7km/h 86% 0.00in /  0mm 2 W/m2
07:40 47.8 °F /  8.8 °C 44.5 °F /  6.9 °C 29.92in /  1013.1hPa North 1mph /  1.6km/h 6mph /  9.7km/h 88% 0.01in /  0.25mm 3 W/m2
07:50 47.8 °F /  8.8 °C 44.5 °F /  6.9 °C 29.92in /  1013.1hPa East 6mph /  9.7km/h 9mph /  14.5km/h 88% 0.00in /  0mm 5 W/m2
08:00 47.8 °F /  8.8 °C 44.5 °F /  6.9 °C 29.92in /  1013.1hPa ESE 3mph /  4.8km/h 7mph /  11.3km/h 88% 0.00in /  0mm 9 W/m2
08:10 47.8 °F /  8.8 °C 44.5 °F /  6.9 °C 29.93in /  1013.4hPa NNE 1mph /  1.6km/h 6mph /  9.7km/h 88% 0.00in /  0mm 11 W/m2
08:20 47.8 °F /  8.8 °C 44.5 °F /  6.9 °C 29.93in /  1013.4hPa SSE 2mph /  3.2km/h 7mph /  11.3km/h 88% 0.00in /  0mm 14 W/m2
08:30 47.8 °F /  8.8 °C 44.5 °F /  6.9 °C 29.92in /  1013.1hPa South 3mph /  4.8km/h 7mph /  11.3km/h 88% 0.00in /  0mm 17 W/m2
08:40 47.8 °F /  8.8 °C 44.5 °F /  6.9 °C 29.92in /  1013.1hPa South 2mph /  3.2km/h 5mph /  8km/h 88% 0.00in /  0mm 26 W/m2
Knjazevac, Serbia
Compliments of Weather Underground - 2 mb